Time;durP1;ratioP1;P1;durP2;ratioP2;P2;SDS_P1;SDS_P2;PMS_P1;PMS_P2;Temp;Humidity;BMP_temperature;BMP_pressure;BME280_temperature;BME280_humidity;BME280_pressure;Samples;Min_cycle;Max_cycle;Signal;HPM_P1;HPM_P2
2021/05/31 00:01:14;;;;;;;14.25;11.30;;;;;;;15.50;68.71;99447.53;4948579;28;20039;-74
2021/05/31 00:03:39;;;;;;;14.38;10.90;;;;;;;15.46;68.44;99438.19;4954661;28;20027;-76
2021/05/31 00:06:05;;;;;;;13.35;10.65;;;;;;;15.55;68.57;99438.78;4947881;29;20111;-74
2021/05/31 00:08:31;;;;;;;13.18;10.70;;;;;;;15.44;68.59;99432.91;4954635;28;20102;-76
2021/05/31 00:10:56;;;;;;;12.45;10.68;;;;;;;15.43;68.47;99444.53;4941597;29;20039;-74
2021/05/31 00:13:22;;;;;;;12.07;10.88;;;;;;;15.36;69.10;99435.97;4954497;28;20050;-74
2021/05/31 00:15:47;;;;;;;12.25;10.75;;;;;;;15.45;68.30;99436.56;4950129;29;20038;-74
2021/05/31 00:18:16;;;;;;;12.27;11.00;;;;;;;15.49;68.49;99440.28;4953433;28;21454;-75
2021/05/31 00:20:43;;;;;;;12.25;10.70;;;;;;;15.46;67.95;99435.38;4954244;28;20169;-76
2021/05/31 00:23:09;;;;;;;12.55;10.68;;;;;;;15.49;67.71;99440.28;4954233;28;20039;-74
2021/05/31 00:25:34;;;;;;;15.27;10.50;;;;;;;15.49;68.40;99436.63;4953424;28;20034;-75
2021/05/31 00:28:00;;;;;;;10.90;9.80;;;;;;;15.48;67.89;99433.00;4954232;28;20524;-77
2021/05/31 00:30:25;;;;;;;11.65;10.40;;;;;;;15.41;67.29;99432.84;4952907;29;20564;-76
2021/05/31 00:32:52;;;;;;;17.83;10.15;;;;;;;15.40;68.21;99431.19;4941418;29;20039;-76
2021/05/31 00:35:17;;;;;;;12.70;10.77;;;;;;;15.31;68.48;99422.97;4947303;28;20139;-75
2021/05/31 00:37:43;;;;;;;13.90;10.35;;;;;;;15.24;68.15;99429.25;4950760;28;20075;-74
2021/05/31 00:40:10;;;;;;;11.07;9.95;;;;;;;15.24;68.87;99420.81;4954087;28;20456;-76
2021/05/31 00:42:36;;;;;;;11.77;10.57;;;;;;;15.14;67.75;99422.22;4952990;29;20043;-76
2021/05/31 00:45:05;;;;;;;12.45;11.10;;;;;;;15.19;68.75;99414.66;4947760;28;20032;-74
2021/05/31 00:47:30;;;;;;;12.77;10.55;;;;;;;15.06;68.41;99423.22;4953676;28;20061;-74
2021/05/31 00:49:57;;;;;;;10.77;9.68;;;;;;;15.04;69.71;99414.31;4947974;28;20125;-74
2021/05/31 00:52:23;;;;;;;11.63;9.98;;;;;;;14.85;69.26;99417.91;4952810;28;20039;-75
2021/05/31 00:54:49;;;;;;;11.52;10.32;;;;;;;14.81;69.86;99417.81;4953580;28;20031;-75
2021/05/31 00:57:16;;;;;;;15.20;10.35;;;;;;;14.74;69.18;99417.63;4938949;28;20031;-74
2021/05/31 00:59:41;;;;;;;13.68;10.35;;;;;;;14.81;70.33;99405.72;4951335;28;20489;-74
2021/05/31 01:02:07;;;;;;;14.85;10.35;;;;;;;14.75;69.70;99410.81;4945648;29;20063;-74
2021/05/31 01:04:33;;;;;;;12.70;9.10;;;;;;;14.73;70.24;99408.38;4953581;28;20046;-75
2021/05/31 01:07:42;;;;;;;13.50;9.35;;;;;;;14.73;69.18;99411.19;4951814;28;20043;-74
2021/05/31 01:10:33;;;;;;;10.73;8.30;;;;;;;14.69;69.55;99403.81;4943038;29;20051;-74
2021/05/31 01:13:01;;;;;;;10.88;9.75;;;;;;;14.55;70.67;99404.25;4952925;29;20102;-74
2021/05/31 01:15:33;;;;;;;11.85;9.63;;;;;;;14.46;70.58;99402.44;4953138;28;20027;-75
2021/05/31 01:18:04;;;;;;;11.75;8.55;;;;;;;14.52;70.62;99402.19;4952725;28;20035;-75
2021/05/31 01:20:47;;;;;;;;;;;;;;;14.39;70.44;99398.63;4950785;28;20038;-74
2021/05/31 01:23:16;;;;;;;10.32;9.05;;;;;;;14.31;71.09;99406.06;4951503;29;19977;-76
2021/05/31 01:25:50;;;;;;;11.38;9.68;;;;;;;14.26;71.11;99403.53;4952375;28;20023;-75
2021/05/31 01:28:31;;;;;;;12.43;9.00;;;;;;;14.24;70.69;99400.25;4953114;28;20050;-74
2021/05/31 01:30:58;;;;;;;10.63;8.63;;;;;;;14.28;71.29;99407.59;4935837;28;20039;-75
2021/05/31 01:33:30;;;;;;;13.52;8.40;;;;;;;14.32;71.12;99402.91;4952159;28;20126;-74
2021/05/31 01:35:59;;;;;;;14.07;8.10;;;;;;;14.28;71.11;99404.00;4952865;28;20477;-74
2021/05/31 01:38:26;;;;;;;9.88;8.65;;;;;;;14.31;71.03;99395.66;4951561;28;20143;-76
2021/05/31 01:40:53;;;;;;;9.45;7.18;;;;;;;14.35;70.48;99394.91;4951521;28;20166;-74
2021/05/31 01:43:19;;;;;;;10.02;8.88;;;;;;;14.32;71.04;99396.44;4951060;29;20047;-76
2021/05/31 01:45:45;;;;;;;13.20;7.93;;;;;;;14.37;70.84;99393.38;4952734;28;20066;-76
2021/05/31 01:48:12;;;;;;;11.07;7.55;;;;;;;14.36;71.16;99393.72;4946979;28;20424;-74
2021/05/31 01:50:38;;;;;;;11.88;6.72;;;;;;;14.43;70.46;99386.28;4952233;28;20042;-75
2021/05/31 01:53:04;;;;;;;8.07;7.28;;;;;;;14.39;69.63;99390.19;4952605;28;20035;-76
2021/05/31 01:55:31;;;;;;;10.02;6.97;;;;;;;14.45;70.41;99389.53;4950416;28;20492;-75
2021/05/31 01:57:57;;;;;;;9.43;7.10;;;;;;;14.40;70.56;99387.03;4949952;29;20042;-76
2021/05/31 02:00:23;;;;;;;7.97;7.18;;;;;;;14.34;70.77;99385.66;4950274;28;20042;-76
2021/05/31 02:02:50;;;;;;;8.75;7.00;;;;;;;14.42;70.77;99398.72;4950906;28;20066;-76
2021/05/31 02:05:15;;;;;;;7.97;7.03;;;;;;;14.55;70.23;99385.38;4945972;28;20152;-74
2021/05/31 02:07:42;;;;;;;8.98;7.15;;;;;;;14.64;69.98;99382.38;4950439;28;20058;-76
2021/05/31 02:10:09;;;;;;;9.02;7.32;;;;;;;14.70;69.84;99383.72;4949957;29;20505;-74
2021/05/31 02:12:59;;;;;;;7.90;6.97;;;;;;;14.70;69.70;99385.72;4950635;28;20110;-76
2021/05/31 02:16:02;;;;;;;9.35;7.10;;;;;;;14.78;69.89;99383.94;4947845;29;20055;-76
2021/05/31 02:18:40;;;;;;;10.93;6.50;;;;;;;14.80;68.53;99385.22;4949074;29;20039;-76
2021/05/31 02:21:09;;;;;;;7.70;5.60;;;;;;;14.76;67.28;99384.28;4951928;28;20027;-76
2021/05/31 02:23:40;;;;;;;6.80;6.00;;;;;;;14.77;68.76;99387.94;4948847;29;20054;-76
2021/05/31 02:26:08;;;;;;;10.68;6.50;;;;;;;14.83;67.62;99386.44;4940975;28;20031;-74
2021/05/31 02:28:35;;;;;;;6.97;5.85;;;;;;;14.78;68.19;99389.56;4951406;29;20035;-76
2021/05/31 02:31:07;;;;;;;8.73;5.88;;;;;;;14.62;68.08;99383.91;4952512;28;20489;-74
2021/05/31 02:33:32;;;;;;;7.32;5.80;;;;;;;14.67;67.85;99389.28;4950194;28;20027;-75
2021/05/31 02:35:58;;;;;;;8.20;5.25;;;;;;;14.68;67.56;99388.09;4942370;28;20046;-74
2021/05/31 02:38:23;;;;;;;8.18;5.95;;;;;;;14.62;67.35;99395.19;4950846;29;20098;-76
2021/05/31 02:40:49;;;;;;;7.13;6.22;;;;;;;14.39;68.58;99393.00;4949740;29;20111;-74
2021/05/31 02:43:14;;;;;;;6.32;5.43;;;;;;;14.50;68.81;99402.53;4945828;29;20023;-76
2021/05/31 02:45:40;;;;;;;8.35;5.53;;;;;;;14.41;68.30;99394.28;4951828;28;20035;-77
2021/05/31 02:48:06;;;;;;;6.93;5.13;;;;;;;14.28;68.70;99389.91;4949277;29;20051;-74
2021/05/31 02:50:33;;;;;;;8.25;5.40;;;;;;;14.38;69.06;99395.00;4950072;28;20031;-76
2021/05/31 02:52:58;;;;;;;6.85;4.80;;;;;;;14.44;68.74;99404.00;4937669;29;20046;-74
2021/05/31 02:55:27;;;;;;;8.07;4.53;;;;;;;14.49;68.87;99400.09;4947280;28;20474;-74
2021/05/31 02:57:53;;;;;;;5.70;5.10;;;;;;;14.51;68.39;99395.72;4951252;28;20524;-77
2021/05/31 03:00:22;;;;;;;5.47;4.97;;;;;;;14.52;68.08;99399.38;4948477;29;20023;-76
2021/05/31 03:02:48;;;;;;;5.22;4.75;;;;;;;14.56;67.69;99412.34;4948080;29;20059;-74
2021/05/31 03:05:19;;;;;;;5.85;4.90;;;;;;;14.53;68.07;99392.56;4944141;28;20413;-75
2021/05/31 03:07:45;;;;;;;6.35;5.22;;;;;;;14.57;69.25;99407.53;4940317;29;20035;-74
2021/05/31 03:10:12;;;;;;;6.63;5.63;;;;;;;14.51;68.26;99403.38;4941901;29;20031;-76
2021/05/31 03:12:43;;;;;;;6.97;5.63;;;;;;;14.52;67.78;99394.53;4939116;28;20027;-76
2021/05/31 03:15:11;;;;;;;6.63;5.63;;;;;;;14.57;68.44;99399.06;4955447;28;20062;-75
2021/05/31 03:17:37;;;;;;;8.50;4.97;;;;;;;14.59;67.89;99400.34;4950062;28;20643;-74
2021/05/31 03:20:05;;;;;;;7.60;5.10;;;;;;;14.58;67.66;99397.91;4952939;29;20030;-75
2021/05/31 03:22:30;;;;;;;15.10;5.22;;;;;;;14.59;68.37;99405.16;4946672;28;20051;-74
2021/05/31 03:41:36;;;;;;;7.10;5.00;;;;;;;14.95;66.57;99391.16;5089203;27;20740;-74
2021/05/31 03:44:02;;;;;;;7.93;5.53;;;;;;;14.90;66.20;99391.44;5081526;28;20596;-74
2021/05/31 03:46:27;;;;;;;7.75;4.95;;;;;;;14.91;66.48;99393.91;5073630;28;20032;-74
2021/05/31 03:48:53;;;;;;;9.52;5.45;;;;;;;14.87;66.95;99387.38;5063716;28;20558;-75
2021/05/31 03:51:20;;;;;;;6.05;5.45;;;;;;;14.81;67.30;99386.00;5064661;28;20601;-74
2021/05/31 03:53:46;;;;;;;7.47;5.10;;;;;;;14.81;67.20;99388.81;5064514;28;20107;-75
2021/05/31 03:56:12;;;;;;;6.53;5.35;;;;;;;14.82;66.72;99391.28;5064984;28;20103;-75
2021/05/31 03:58:40;;;;;;;6.78;4.90;;;;;;;14.78;66.96;99393.22;5062929;28;20444;-75
2021/05/31 04:01:06;;;;;;;6.13;4.88;;;;;;;14.74;66.87;99384.66;5077712;28;20033;-74
2021/05/31 04:03:32;;;;;;;5.22;4.72;;;;;;;14.76;66.76;99386.31;5076185;28;20495;-75
2021/05/31 04:13:52;;;;;;;6.35;4.40;;;;;;;14.80;67.51;99390.00;5067056;28;20083;-74
2021/05/31 04:16:17;;;;;;;7.00;4.90;;;;;;;14.83;67.34;99380.81;5072415;28;20028;-75
2021/05/31 04:18:43;;;;;;;4.72;4.00;;;;;;;14.82;65.91;99379.19;5078812;28;20028;-75
2021/05/31 04:21:08;;;;;;;5.20;4.28;;;;;;;14.70;66.50;99388.53;5079815;28;20040;-76
2021/05/31 04:23:34;;;;;;;5.03;4.53;;;;;;;14.59;67.16;99386.28;5074267;28;20028;-75
2021/05/31 04:25:59;;;;;;;4.95;4.53;;;;;;;14.65;67.61;99398.09;5081191;28;20032;-74
2021/05/31 04:28:24;;;;;;;6.75;4.45;;;;;;;14.62;67.98;99390.38;5076480;28;20029;-70
2021/05/31 04:30:50;;;;;;;4.07;3.67;;;;;;;14.65;67.69;99392.44;5081434;28;20032;-73
2021/05/31 04:33:15;;;;;;;4.60;4.15;;;;;;;14.63;66.71;99388.38;5070308;28;20033;-74
2021/05/31 04:35:41;;;;;;;5.70;5.13;;;;;;;14.63;67.55;99383.56;5079438;28;20045;-75
2021/05/31 04:38:06;;;;;;;5.88;4.20;;;;;;;14.57;66.93;99391.47;5078051;28;20029;-75
2021/05/31 04:40:32;;;;;;;6.60;4.78;;;;;;;14.51;67.31;99397.75;5066363;28;20051;-76
2021/05/31 04:42:57;;;;;;;5.93;4.20;;;;;;;14.50;67.73;99390.47;5060243;28;20032;-74
2021/05/31 04:45:23;;;;;;;6.90;4.68;;;;;;;14.43;67.36;99391.13;5059130;28;20110;-73
2021/05/31 04:47:48;;;;;;;5.85;4.70;;;;;;;14.43;67.81;99403.16;5058160;28;20036;-75
2021/05/31 04:50:14;;;;;;;6.72;4.30;;;;;;;14.50;68.16;99396.09;5059721;28;20041;-75
2021/05/31 04:52:39;;;;;;;5.05;4.57;;;;;;;14.51;67.73;99392.09;5062882;28;20100;-77
2021/05/31 04:55:14;;;;;;;4.85;4.35;;;;;;;14.57;68.10;99396.25;5062090;28;20037;-79
2021/05/31 04:57:39;;;;;;;6.35;4.80;;;;;;;14.62;67.91;99392.34;5070004;28;20159;-78
2021/05/31 05:00:05;;;;;;;5.75;4.10;;;;;;;14.63;67.17;99389.19;5065588;28;20478;-74
2021/05/31 05:02:31;;;;;;;4.75;4.35;;;;;;;14.57;66.89;99390.63;5060267;28;20493;-74
2021/05/31 05:04:56;;;;;;;6.72;5.07;;;;;;;14.65;67.77;99400.91;5059407;28;20031;-73
2021/05/31 05:07:23;;;;;;;4.78;4.30;;;;;;;14.62;66.97;99398.00;5068360;28;20033;-77
2021/05/31 05:09:49;;;;;;;6.10;4.47;;;;;;;14.61;66.63;99402.81;5058671;28;20040;-74
2021/05/31 05:12:15;;;;;;;4.70;4.25;;;;;;;14.67;67.42;99406.97;5063754;28;20035;-75
2021/05/31 05:14:41;;;;;;;9.32;4.72;;;;;;;14.72;66.86;99405.91;5062095;28;20033;-73
2021/05/31 05:17:06;;;;;;;6.13;4.45;;;;;;;14.66;67.08;99402.53;5062078;28;20078;-73
2021/05/31 05:19:32;;;;;;;6.15;4.32;;;;;;;14.64;67.28;99410.53;5063189;28;20033;-76
2021/05/31 05:21:57;;;;;;;7.55;4.10;;;;;;;14.53;65.96;99406.63;5063203;28;20633;-74
2021/05/31 05:24:23;;;;;;;6.35;4.05;;;;;;;14.52;66.38;99410.63;5060857;28;20037;-74
2021/05/31 05:26:48;;;;;;;6.35;4.22;;;;;;;14.41;66.72;99411.16;5052574;28;20047;-76
2021/05/31 05:29:14;;;;;;;5.78;4.35;;;;;;;14.19;67.62;99409.78;5052951;28;20190;-74
2021/05/31 05:31:39;;;;;;;4.30;3.90;;;;;;;14.30;68.11;99418.50;5054080;28;20056;-74
2021/05/31 05:34:06;;;;;;;3.85;3.53;;;;;;;14.29;66.52;99414.06;5055439;28;20037;-76
2021/05/31 05:49:48;;;;;;;15.82;5.30;;;;;;;14.54;68.65;99408.25;5050164;28;20037;-76
2021/05/31 05:52:14;;;;;;;4.80;4.22;;;;;;;14.65;68.94;99417.78;5050119;28;20079;-75
2021/05/31 05:54:39;;;;;;;4.30;3.90;;;;;;;14.75;68.23;99413.63;5048296;28;20044;-75
2021/05/31 05:57:06;;;;;;;4.60;4.20;;;;;;;14.76;68.46;99418.06;5049436;28;20032;-76
2021/05/31 05:59:31;;;;;;;4.47;3.97;;;;;;;14.82;67.93;99418.59;5050046;28;20040;-78
2021/05/31 06:01:57;;;;;;;7.40;5.55;;;;;;;14.90;68.58;99416.78;5048441;28;20036;-79
2021/05/31 06:04:22;;;;;;;8.60;5.18;;;;;;;14.74;66.36;99420.44;5050146;28;20037;-79
2021/05/31 06:06:49;;;;;;;8.63;4.63;;;;;;;14.65;66.76;99420.59;5050099;28;20040;-78
2021/05/31 06:09:16;;;;;;;4.60;4.20;;;;;;;14.71;67.39;99418.31;5051474;28;20033;-75
2021/05/31 06:11:42;;;;;;;6.53;3.95;;;;;;;14.70;65.99;99411.88;5050686;28;20037;-75
2021/05/31 06:14:09;;;;;;;4.05;3.67;;;;;;;14.53;64.98;99417.88;5050683;28;20056;-78
2021/05/31 06:16:35;;;;;;;4.32;3.92;;;;;;;14.54;66.76;99411.06;5050213;28;20033;-76
2021/05/31 06:19:01;;;;;;;4.80;4.30;;;;;;;14.62;66.85;99409.25;5056715;28;20104;-78
2021/05/31 06:21:27;;;;;;;10.50;4.45;;;;;;;14.51;65.77;99420.25;5050630;28;20064;-75
2021/05/31 06:23:54;;;;;;;4.47;4.03;;;;;;;14.53;66.04;99406.63;5047981;28;20060;-75
2021/05/31 06:26:20;;;;;;;5.03;4.50;;;;;;;14.51;66.11;99418.22;5060313;28;20041;-78
2021/05/31 06:28:45;;;;;;;4.38;3.97;;;;;;;14.57;67.35;99408.34;5049290;28;20025;-75
2021/05/31 06:31:11;;;;;;;4.30;3.70;;;;;;;14.54;66.80;99409.09;5050233;28;20033;-78
2021/05/31 06:33:36;;;;;;;6.45;3.80;;;;;;;14.56;65.79;99400.25;5066821;28;20502;-78
2021/05/31 06:36:06;;;;;;;6.97;4.60;;;;;;;14.54;66.95;99405.44;5049183;28;20508;-75
2021/05/31 06:38:32;;;;;;;9.45;4.70;;;;;;;14.57;66.87;99407.53;5050878;28;20486;-75
2021/05/31 06:40:59;;;;;;;6.60;5.07;;;;;;;14.42;66.46;99406.34;5049528;28;20128;-75
2021/05/31 06:43:25;;;;;;;6.22;5.13;;;;;;;14.38;66.53;99405.44;5047038;28;20458;-75
2021/05/31 06:45:50;;;;;;;10.90;7.30;;;;;;;14.33;67.96;99409.34;5048940;28;20105;-74
2021/05/31 06:48:15;;;;;;;7.72;6.72;;;;;;;14.38;69.27;99416.69;5047361;28;20512;-78
2021/05/31 06:50:43;;;;;;;6.82;5.50;;;;;;;14.31;68.32;99406.91;5050428;28;20063;-75
2021/05/31 06:53:09;;;;;;;7.90;6.55;;;;;;;14.46;68.14;99408.06;5047946;28;20516;-78
2021/05/31 06:55:35;;;;;;;6.50;5.88;;;;;;;14.58;68.31;99403.53;5049487;28;20037;-75
2021/05/31 06:58:04;;;;;;;8.13;6.45;;;;;;;14.50;68.68;99408.16;5054913;28;20043;-78
2021/05/31 07:00:29;;;;;;;6.95;5.68;;;;;;;14.55;67.96;99413.53;5050240;28;20413;-77
2021/05/31 07:02:56;;;;;;;5.93;5.20;;;;;;;14.71;68.51;99416.31;5048254;28;20029;-77
2021/05/31 07:05:22;;;;;;;5.85;5.30;;;;;;;14.78;68.78;99412.91;5049755;28;20068;-74
2021/05/31 07:08:12;;;;;;;7.68;5.68;;;;;;;14.90;67.53;99411.16;5049617;28;20082;-76
2021/05/31 07:10:38;;;;;;;11.63;8.07;;;;;;;14.97;67.34;99411.31;5046394;28;20041;-78
2021/05/31 07:13:04;;;;;;;12.25;7.18;;;;;;;14.99;67.68;99409.78;5045266;28;20516;-75
2021/05/31 07:15:32;;;;;;;11.40;7.38;;;;;;;15.08;68.65;99405.94;5049741;28;20035;-73
2021/05/31 07:17:57;;;;;;;12.02;7.43;;;;;;;15.14;67.33;99402.50;5051161;28;20162;-77
2021/05/31 07:20:23;;;;;;;13.07;6.57;;;;;;;15.18;66.70;99408.19;5047592;28;20123;-76
2021/05/31 07:22:49;;;;;;;8.73;6.25;;;;;;;15.15;66.24;99414.56;5052199;28;20505;-80
2021/05/31 07:25:16;;;;;;;7.43;4.82;;;;;;;15.12;64.25;99410.47;5048184;28;20033;-73
2021/05/31 07:27:43;;;;;;;5.63;5.13;;;;;;;15.12;66.28;99407.66;5049668;28;20028;-76
2021/05/31 07:30:09;;;;;;;5.50;4.90;;;;;;;15.22;66.63;99406.28;5060049;28;20044;-76
2021/05/31 07:32:37;;;;;;;7.55;5.25;;;;;;;15.23;66.79;99415.53;5065987;28;20036;-72
2021/05/31 07:35:06;;;;;;;9.55;5.00;;;;;;;15.29;65.21;99414.06;5056204;28;20477;-75
2021/05/31 07:37:33;;;;;;;7.03;5.35;;;;;;;15.24;66.01;99411.53;5052374;28;20024;-75
2021/05/31 07:39:59;;;;;;;6.30;4.97;;;;;;;15.26;65.99;99409.16;5047989;28;20057;-74
2021/05/31 07:42:25;;;;;;;8.85;5.55;;;;;;;15.28;66.73;99412.44;5047505;28;20020;-74
2021/05/31 07:44:50;;;;;;;6.25;5.30;;;;;;;15.24;65.48;99406.72;5047826;28;20464;-74
2021/05/31 07:47:15;;;;;;;7.00;6.10;;;;;;;15.29;65.61;99409.22;5062872;28;20387;-75
2021/05/31 07:49:41;;;;;;;8.45;5.85;;;;;;;15.36;66.93;99399.31;5049707;28;20068;-75
2021/05/31 07:52:09;;;;;;;7.55;6.03;;;;;;;15.42;65.51;99406.28;5048604;28;20045;-74
2021/05/31 07:54:35;;;;;;;7.80;6.43;;;;;;;15.48;65.30;99401.16;5044034;28;20025;-73
2021/05/31 07:57:00;;;;;;;11.43;8.15;;;;;;;15.43;62.96;99391.00;5054300;28;20124;-76
2021/05/31 07:59:26;;;;;;;10.18;6.75;;;;;;;15.36;63.17;99396.50;5057516;28;20440;-74
2021/05/31 08:01:52;;;;;;;7.00;6.30;;;;;;;15.44;64.29;99387.81;5056268;28;20456;-74
2021/05/31 08:04:18;;;;;;;7.53;6.70;;;;;;;15.42;64.19;99398.66;5047966;28;20037;-74
2021/05/31 08:06:43;;;;;;;7.38;5.60;;;;;;;15.44;64.01;99399.09;5058679;28;20029;-75
2021/05/31 08:09:09;;;;;;;8.52;5.90;;;;;;;15.53;64.66;99393.22;5065734;28;20044;-75
2021/05/31 08:11:35;;;;;;;5.85;5.25;;;;;;;15.58;64.41;99400.59;5189690;23;20054;-73
2021/05/31 08:14:00;;;;;;;7.60;5.35;;;;;;;15.64;64.49;99396.28;5009349;28;20422;-73
2021/05/31 08:16:26;;;;;;;7.88;6.80;;;;;;;15.67;63.54;99394.72;5011354;28;20034;-74
2021/05/31 08:18:52;;;;;;;9.30;7.40;;;;;;;15.70;64.64;99394.00;5012577;28;20030;-75
2021/05/31 08:21:17;;;;;;;7.68;6.93;;;;;;;15.76;64.31;99395.31;5013179;28;20518;-74
2021/05/31 08:23:43;;;;;;;6.60;6.00;;;;;;;15.77;64.06;99379.22;5004804;28;20026;-73
2021/05/31 08:26:09;;;;;;;7.32;6.63;;;;;;;15.82;62.81;99384.53;5004089;28;20038;-74
2021/05/31 08:28:36;;;;;;;8.15;6.72;;;;;;;15.77;62.93;99382.84;5004353;28;20030;-73
2021/05/31 08:31:03;;;;;;;11.95;6.93;;;;;;;15.72;62.93;99392.41;5012899;28;20061;-74
2021/05/31 08:33:29;;;;;;;8.80;7.90;;;;;;;15.75;64.31;99385.22;5008791;28;20022;-74
2021/05/31 08:35:54;;;;;;;9.02;6.30;;;;;;;15.79;63.60;99385.28;5009236;28;20027;-76
2021/05/31 08:38:20;;;;;;;11.88;7.60;;;;;;;15.78;63.17;99390.09;5008148;28;20495;-73
2021/05/31 08:40:46;;;;;;;9.25;7.45;;;;;;;15.81;65.08;99395.03;5007951;28;20080;-71
2021/05/31 08:43:12;;;;;;;9.13;6.50;;;;;;;15.83;63.34;99389.81;5012635;28;20076;-73
2021/05/31 08:45:38;;;;;;;6.78;6.18;;;;;;;15.89;62.96;99395.16;5011181;28;20049;-73
2021/05/31 08:48:07;;;;;;;7.40;6.55;;;;;;;15.87;63.74;99395.53;5011365;28;20052;-73
2021/05/31 08:50:34;;;;;;;7.55;6.47;;;;;;;15.84;64.06;99394.28;5157533;23;20058;-74
2021/05/31 08:52:59;;;;;;;6.38;5.78;;;;;;;15.74;61.37;99397.69;5013208;28;20058;-73
2021/05/31 08:55:28;;;;;;;11.75;6.97;;;;;;;15.74;63.78;99394.88;5003327;28;20496;-69
2021/05/31 08:57:55;;;;;;;7.60;6.60;;;;;;;15.82;63.61;99388.19;5008705;28;20171;-73
2021/05/31 09:00:24;;;;;;;7.57;6.85;;;;;;;15.93;62.64;99394.06;5001987;28;20511;-72
2021/05/31 09:02:51;;;;;;;8.85;6.20;;;;;;;15.95;60.93;99383.22;4979316;28;20027;-77
2021/05/31 09:05:27;;;;;;;6.32;5.75;;;;;;;15.95;62.10;99385.22;4992327;28;20518;-71
2021/05/31 09:07:53;;;;;;;7.72;6.60;;;;;;;16.00;61.05;99393.38;4988949;28;20050;-73
2021/05/31 09:27:52;;;;;;;9.38;5.25;;;;;;;16.25;63.00;99373.28;5119702;27;20512;-72
2021/05/31 09:30:18;;;;;;;6.63;5.13;;;;;;;16.27;63.62;99376.53;5118550;27;20043;-73
2021/05/31 09:32:53;;;;;;;10.70;5.10;;;;;;;16.10;63.21;99377.84;5119484;28;20032;-72
2021/05/31 09:35:23;;;;;;;7.25;4.93;;;;;;;16.17;64.16;99369.50;5113278;28;20035;-73
2021/05/31 09:37:49;;;;;;;5.82;4.80;;;;;;;16.22;63.24;99374.03;5113053;27;20054;-73
2021/05/31 09:40:22;;;;;;;5.13;4.63;;;;;;;16.32;62.15;99372.56;5106455;28;20394;-73
2021/05/31 09:42:54;;;;;;;4.90;4.50;;;;;;;16.35;62.71;99377.47;5105151;28;20023;-72
2021/05/31 09:45:19;;;;;;;5.97;5.18;;;;;;;16.30;61.47;99369.31;5104641;28;20460;-72
2021/05/31 09:47:46;;;;;;;6.10;4.35;;;;;;;16.38;62.37;99365.44;5116450;28;20062;-73
2021/05/31 09:50:19;;;;;;;6.97;4.97;;;;;;;16.37;63.16;99367.44;5114678;28;20073;-72
2021/05/31 09:52:45;;;;;;;5.75;5.18;;;;;;;16.06;65.51;99369.31;5107762;27;20028;-72
2021/05/31 09:55:11;;;;;;;7.15;4.88;;;;;;;15.75;65.24;99371.13;5107501;28;20519;-71
2021/05/31 09:57:38;;;;;;;8.90;5.00;;;;;;;15.81;65.31;99369.66;5112898;28;20498;-72
2021/05/31 10:00:20;;;;;;;8.30;4.82;;;;;;;15.85;66.32;99370.53;5107150;27;20476;-72
2021/05/31 10:02:55;;;;;;;8.18;4.60;;;;;;;15.94;64.06;99364.66;5106388;27;20024;-72
2021/05/31 10:10:42;;;;;;;4.60;4.20;;;;;;;15.78;65.33;99356.28;5119744;27;20039;-73
2021/05/31 10:13:08;;;;;;;8.43;4.18;;;;;;;15.86;63.90;99352.41;5115150;28;20054;-72
2021/05/31 10:15:39;;;;;;;5.32;3.90;;;;;;;15.95;63.63;99355.00;5107598;28;20034;-75
2021/05/31 10:18:05;;;;;;;4.43;4.03;;;;;;;15.76;63.74;99353.00;5114985;28;20039;-76
2021/05/31 10:20:37;;;;;;;4.22;3.85;;;;;;;15.74;64.08;99349.75;5114497;27;20043;-77
2021/05/31 10:23:03;;;;;;;6.47;4.00;;;;;;;15.73;62.93;99348.13;5112798;28;20027;-76
2021/05/31 10:25:29;;;;;;;4.65;4.25;;;;;;;15.94;64.11;99346.94;5115288;27;20151;-76
2021/05/31 10:27:59;;;;;;;5.35;3.85;;;;;;;15.79;62.76;99338.16;5097610;28;20259;-72
2021/05/31 10:30:25;;;;;;;5.78;3.88;;;;;;;15.86;61.51;99340.28;5104793;28;20433;-72
2021/05/31 10:32:51;;;;;;;5.82;4.80;;;;;;;16.14;61.60;99336.41;5111356;28;20023;-75
2021/05/31 10:35:18;;;;;;;4.90;4.35;;;;;;;16.12;62.16;99330.34;5103196;28;20035;-72
2021/05/31 10:37:54;;;;;;;5.28;4.05;;;;;;;16.35;61.36;99327.50;5109414;28;20533;-75
2021/05/31 10:40:22;;;;;;;6.50;4.53;;;;;;;16.38;60.38;99331.56;5105427;28;20028;-72
2021/05/31 10:42:50;;;;;;;4.47;4.13;;;;;;;16.63;61.03;99329.13;5106307;28;20024;-73
2021/05/31 10:45:19;;;;;;;8.30;5.05;;;;;;;16.44;60.64;99323.59;5108741;28;20043;-79
2021/05/31 10:48:04;;;;;;;4.80;4.40;;;;;;;16.21;59.94;99319.59;5111910;28;20019;-77
2021/05/31 10:50:36;;;;;;;5.63;4.70;;;;;;;16.31;61.28;99309.69;5118175;27;20811;-77
2021/05/31 10:53:02;;;;;;;9.23;5.53;;;;;;;16.38;62.04;99309.00;5111758;28;20028;-73
2021/05/31 10:55:28;;;;;;;6.40;4.53;;;;;;;16.49;61.57;99309.97;5111951;28;20381;-72
2021/05/31 10:57:56;;;;;;;10.55;4.75;;;;;;;16.57;60.09;99305.25;5111851;28;20034;-73
2021/05/31 11:00:22;;;;;;;4.78;4.22;;;;;;;16.38;60.31;99304.16;5113309;28;20027;-77
2021/05/31 11:02:48;;;;;;;7.20;5.20;;;;;;;16.46;60.74;99307.09;5113131;28;20454;-73
2021/05/31 11:05:14;;;;;;;5.32;4.72;;;;;;;16.78;59.14;99301.94;5097702;28;20031;-77
2021/05/31 11:07:41;;;;;;;5.40;4.90;;;;;;;16.76;58.44;99304.31;5111597;28;20107;-77
2021/05/31 11:10:15;;;;;;;7.95;5.20;;;;;;;17.03;58.40;99297.88;5112222;28;20102;-73
2021/05/31 11:12:40;;;;;;;8.45;5.43;;;;;;;17.26;59.03;99292.09;5109946;28;20032;-77
2021/05/31 11:15:13;;;;;;;7.05;5.57;;;;;;;17.03;59.82;99297.88;5109631;28;20019;-77
2021/05/31 11:17:51;;;;;;;6.68;5.65;;;;;;;17.21;59.21;99287.59;5111796;28;20421;-72
2021/05/31 11:20:18;;;;;;;7.20;5.32;;;;;;;17.27;57.73;99288.06;5113121;28;20373;-72
2021/05/31 11:23:06;;;;;;;8.40;5.97;;;;;;;17.36;58.13;99284.94;5110833;28;20028;-72
2021/05/31 11:25:32;;;;;;;5.30;4.80;;;;;;;17.63;57.49;99284.84;5096387;28;20047;-75
2021/05/31 11:28:03;;;;;;;9.00;4.93;;;;;;;17.44;57.02;99289.47;5114945;27;20118;-76
2021/05/31 11:30:31;;;;;;;8.52;5.22;;;;;;;17.12;58.47;99293.53;5118955;27;20035;-78
2021/05/31 11:33:00;;;;;;;5.75;5.15;;;;;;;17.05;58.05;99279.31;5105085;28;20035;-78
2021/05/31 11:35:26;;;;;;;6.78;5.57;;;;;;;17.02;58.56;99273.63;5110895;28;20570;-78
2021/05/31 11:37:54;;;;;;;4.88;4.47;;;;;;;17.17;57.71;99277.44;5112161;28;20073;-73
2021/05/31 11:40:31;;;;;;;5.75;4.85;;;;;;;17.21;57.15;99281.13;5111267;28;20027;-78
2021/05/31 11:43:02;;;;;;;5.20;4.70;;;;;;;17.01;56.04;99277.63;5108581;27;20102;-73
2021/05/31 11:45:34;;;;;;;10.73;5.63;;;;;;;17.05;58.14;99278.50;5119297;27;20054;-72
2021/05/31 11:48:03;;;;;;;6.45;5.85;;;;;;;17.15;58.21;99282.66;5110234;28;20245;-79
2021/05/31 11:50:30;;;;;;;5.47;4.97;;;;;;;17.08;57.30;99275.75;5109040;28;20122;-70
2021/05/31 11:52:55;;;;;;;9.95;5.60;;;;;;;16.97;59.00;99271.94;5108173;28;20080;-79
2021/05/31 11:55:26;;;;;;;6.05;5.50;;;;;;;16.63;58.34;99272.66;5112140;28;20036;-70
2021/05/31 11:57:52;;;;;;;5.65;5.18;;;;;;;16.80;58.88;99265.63;5111935;28;20446;-76
2021/05/31 12:00:47;;;;;;;9.85;5.80;;;;;;;16.48;59.48;99274.47;5112025;28;20036;-76
2021/05/31 12:03:22;;;;;;;6.28;5.68;;;;;;;16.59;59.63;99271.81;5092698;28;20484;-73
2021/05/31 12:05:47;;;;;;;9.63;6.47;;;;;;;16.75;59.59;99270.81;5110148;28;20036;-76
2021/05/31 12:08:16;;;;;;;7.55;6.22;;;;;;;16.86;58.36;99270.97;5111441;28;20080;-73
2021/05/31 12:10:44;;;;;;;11.02;5.65;;;;;;;16.94;57.49;99267.84;5101845;28;20584;-73
2021/05/31 12:13:10;;;;;;;8.05;6.20;;;;;;;16.89;59.46;99251.22;5103329;28;20028;-76
2021/05/31 12:15:36;;;;;;;6.72;6.05;;;;;;;17.08;58.20;99249.47;5099317;28;20493;-76
2021/05/31 12:18:16;;;;;;;6.68;5.45;;;;;;;16.81;58.29;99255.97;5108400;28;20037;-76
2021/05/31 12:20:43;;;;;;;7.15;6.45;;;;;;;17.08;58.79;99260.78;5090468;28;20111;-73
2021/05/31 12:23:21;;;;;;;11.88;5.97;;;;;;;16.77;58.02;99255.13;5101022;28;20464;-76
2021/05/31 12:25:48;;;;;;;8.65;6.43;;;;;;;16.92;57.68;99242.00;5101101;28;20056;-73
2021/05/31 12:28:14;;;;;;;7.30;6.35;;;;;;;17.19;57.86;99239.13;5100601;28;20028;-73
2021/05/31 12:30:44;;;;;;;6.90;5.80;;;;;;;17.40;56.43;99249.06;5096904;28;20092;-74
2021/05/31 12:33:12;;;;;;;6.53;5.93;;;;;;;17.51;56.91;99243.50;5111455;27;20015;-73
2021/05/31 12:35:37;;;;;;;9.25;5.88;;;;;;;17.78;56.57;99232.88;5109393;28;20075;-73